メインページ
METAR-TAF:

METAR-TAF

空港 :

ラルナカ国際空港

ラルナカ, キプロス

緯度: 34-53N, 経度: 033-38E, 海抜: 2m

現時点の気象観測

当レポートは13分前の04:30(UTC)に作成
北西の風 6kt、西から北/北西の間で変化する
気温 14°C
湿度 67%
気圧 1013 hPa
視程10km以上
高度2200ftの雲はほとんどない

METAR: LCLK 220430Z 31006KT 280V340 9999 FEW022 14/08 Q1013 NOSIG

時間: 07:43 (04:43 UTC)

予報

当レポートは5時間13分前の23:30(UTC)に作成
予報は22日の 00時(UTC)から 22日の 24時(UTC)まで有効
北西の風 9kt
視程10km以上
高度3000ftの雲はほとんどない
22日の 09時(UTC)から 22日の 12時(UTC)まで徐々に
南/南西の風 17kt
22日の 16時(UTC)から 22日の 19時(UTC)まで徐々に
北西の風 8kt

TAF: LCLK 212330Z 2200/2224 32009KT 9999 FEW030 BECMG 2209/2212 21017KT BECMG 2216/2219 31008KT

4,000以上の空港の気象観測と天気予報(METAR報とTAF報)

利用可能な観測所は地図上に黄色い丸と赤い丸で示す。

丸の上にカーソルを重ねると観測所名を参照できる。

次にクリックすると気象観測と天気予報を参照できる。

マップの切り替え:黒色「×」印の緑ボタンをクリックして拡大、「-」印の緑ボタンをクリックして縮小、緑色の三角印をクリックして隣りの地図に切り替え


METAR-TAF: